createdAt,value
2023-02-25T00:01:07.198Z,99559.13
2023-02-25T00:03:37.365Z,99605.03
2023-02-25T00:06:08.250Z,99567.34
2023-02-25T00:08:38.564Z,99485.94
2023-02-25T00:11:10.272Z,99590.66
2023-02-25T00:13:42.800Z,99582.66
2023-02-25T00:16:16.201Z,99593.00
2023-02-25T00:18:47.112Z,99591.28
2023-02-25T00:21:18.695Z,99582.19
2023-02-25T00:23:50.723Z,99570.94
2023-02-25T00:26:21.338Z,99581.06
2023-02-25T00:28:51.696Z,99579.22
2023-02-25T00:31:26.565Z,99602.13
2023-02-25T00:33:56.302Z,99584.91
2023-02-25T00:36:28.384Z,99592.81
2023-02-25T00:39:00.077Z,99609.13
2023-02-25T00:41:31.861Z,99605.84
2023-02-25T00:44:05.667Z,99615.06
2023-02-25T00:46:38.386Z,99627.56
2023-02-25T00:49:08.196Z,99621.53
2023-02-25T00:51:38.205Z,99619.88
2023-02-25T00:54:08.382Z,99567.59
2023-02-25T00:56:38.408Z,99594.84
2023-02-25T00:59:08.036Z,99572.38
2023-02-25T01:01:40.541Z,99428.22
2023-02-25T01:04:11.774Z,99591.22
2023-02-25T01:06:42.266Z,99648.34
2023-02-25T01:09:15.111Z,99644.22
2023-02-25T01:11:46.647Z,99596.09
2023-02-25T01:14:19.554Z,99567.94
2023-02-25T01:16:56.394Z,99605.59
2023-02-25T01:19:28.374Z,99634.59
2023-02-25T01:22:01.099Z,99640.59
2023-02-25T01:24:32.520Z,99566.22
2023-02-25T01:27:04.194Z,99649.09
2023-02-25T01:29:39.373Z,99659.19
2023-02-25T01:32:14.637Z,99666.78
2023-02-25T01:34:45.070Z,99663.38
2023-02-25T01:37:15.798Z,99667.59
2023-02-25T01:39:45.713Z,99629.00
2023-02-25T01:42:19.049Z,99664.34
2023-02-25T01:45:19.331Z,99680.56
2023-02-25T01:47:54.799Z,99624.75
2023-02-25T01:50:30.170Z,99688.78
2023-02-25T01:53:05.094Z,99695.34
2023-02-25T01:55:36.789Z,99651.06
2023-02-25T01:58:06.759Z,99648.53
2023-02-25T02:00:37.095Z,99651.56
2023-02-25T02:03:16.245Z,99642.31
2023-02-25T02:05:57.339Z,99664.66
2023-02-25T02:08:28.301Z,99703.66
2023-02-25T02:10:59.170Z,99701.19
2023-02-25T02:13:29.395Z,99698.97
2023-02-25T02:16:15.521Z,99673.34
2023-02-25T02:18:54.352Z,99687.81
2023-02-25T02:21:48.236Z,99639.72
2023-02-25T02:24:44.503Z,99579.84
2023-02-25T02:27:23.949Z,99696.94
2023-02-25T02:30:28.776Z,99675.69
2023-02-25T02:33:10.014Z,99685.91
2023-02-25T02:35:53.245Z,99691.22
2023-02-25T02:38:34.402Z,99651.13
2023-02-25T02:41:10.244Z,99699.03
2023-02-25T02:43:47.677Z,99656.09
2023-02-25T02:46:21.727Z,99657.84
2023-02-25T02:48:59.948Z,99699.84
2023-02-25T02:51:37.699Z,99655.38
2023-02-25T02:54:11.759Z,99640.94
2023-02-25T02:56:46.455Z,99682.88
2023-02-25T02:59:23.973Z,99658.94
2023-02-25T03:01:57.704Z,99666.69
2023-02-25T03:04:36.663Z,99680.47
2023-02-25T03:07:11.792Z,99704.66
2023-02-25T03:09:45.868Z,99691.75
2023-02-25T03:12:15.942Z,99699.75
2023-02-25T03:14:46.640Z,99716.88
2023-02-25T03:17:21.146Z,99693.00
2023-02-25T03:19:59.996Z,99702.53
2023-02-25T03:22:35.043Z,99703.16
2023-02-25T03:25:13.804Z,99669.16
2023-02-25T03:27:46.166Z,99697.25
2023-02-25T03:30:27.103Z,99700.88
2023-02-25T03:33:00.797Z,99723.84
2023-02-25T03:35:35.256Z,99692.94
2023-02-25T03:38:09.629Z,99683.56
2023-02-25T03:40:41.214Z,99716.84
2023-02-25T03:43:16.442Z,99721.06
2023-02-25T03:45:48.067Z,99690.97
2023-02-25T03:48:20.715Z,99750.09
2023-02-25T03:50:59.384Z,99764.50
2023-02-25T03:53:29.780Z,99731.19
2023-02-25T03:56:07.008Z,99700.25
2023-02-25T03:58:39.866Z,99763.28
2023-02-25T04:01:25.677Z,99752.06
2023-02-25T04:03:55.587Z,99711.53
2023-02-25T04:06:28.373Z,99732.72
2023-02-25T04:08:58.500Z,99776.53
2023-02-25T04:11:28.240Z,99764.81
2023-02-25T04:13:58.088Z,99762.31
2023-02-25T04:16:27.966Z,99712.75
2023-02-25T04:19:00.076Z,99782.13
2023-02-25T04:21:35.713Z,99783.00
2023-02-25T04:24:07.255Z,99769.28
2023-02-25T04:26:37.557Z,99786.41
2023-02-25T04:29:07.516Z,99785.47
2023-02-25T04:31:37.468Z,99789.78
2023-02-25T04:34:07.343Z,99754.53
2023-02-25T04:36:41.698Z,99807.03
2023-02-25T04:39:11.683Z,99785.59
2023-02-25T04:41:42.220Z,99801.97
2023-02-25T04:44:12.385Z,99736.50
2023-02-25T04:47:07.766Z,99783.09
2023-02-25T05:02:12.845Z,99826.53
2023-02-25T05:05:00.685Z,99661.84
2023-02-25T05:07:44.664Z,99667.97
2023-02-25T05:10:29.906Z,99677.84
2023-02-25T05:13:07.732Z,99696.34
2023-02-25T05:15:41.972Z,99836.28
2023-02-25T05:18:20.641Z,99853.34
2023-02-25T05:20:51.904Z,99533.09
2023-02-25T05:23:21.893Z,99789.94
2023-02-25T05:25:51.766Z,99832.19
2023-02-25T05:28:23.990Z,99793.31
2023-02-25T05:30:55.411Z,99824.66
2023-02-25T05:33:27.253Z,99786.91
2023-02-25T05:35:56.966Z,99830.66
2023-02-25T05:38:28.461Z,99836.81
2023-02-25T05:40:58.357Z,99792.41
2023-02-25T05:43:31.155Z,99838.75
2023-02-25T05:46:03.585Z,99811.44
2023-02-25T05:48:34.497Z,99791.50
2023-02-25T05:51:06.028Z,99801.53
2023-02-25T05:53:37.465Z,99816.28
2023-02-25T05:56:08.917Z,99832.50
2023-02-25T05:58:41.721Z,99839.28
2023-02-25T06:01:13.673Z,99816.81
2023-02-25T06:03:44.657Z,99818.19
2023-02-25T06:06:16.080Z,99846.31
2023-02-25T06:08:46.972Z,99854.66
2023-02-25T06:11:21.164Z,99775.03
2023-02-25T06:13:55.573Z,99842.84
2023-02-25T06:16:26.218Z,99843.63
2023-02-25T06:18:56.539Z,99874.41
2023-02-25T06:21:26.188Z,99833.13
2023-02-25T06:23:56.066Z,99879.22
2023-02-25T06:26:26.337Z,99865.53
2023-02-25T06:28:59.290Z,99849.78
2023-02-25T06:31:29.074Z,99874.50
2023-02-25T06:33:58.776Z,99897.63
2023-02-25T06:36:30.847Z,99907.66
2023-02-25T06:39:00.530Z,99894.53
2023-02-25T06:41:30.236Z,99689.56
2023-02-25T06:44:02.754Z,99897.94
2023-02-25T06:46:32.628Z,99878.50
2023-02-25T06:49:02.368Z,99933.41
2023-02-25T06:51:31.986Z,99922.94
2023-02-25T06:54:01.619Z,99930.50
2023-02-25T06:56:31.911Z,99951.06
2023-02-25T06:59:04.400Z,99949.72
2023-02-25T07:01:34.337Z,99965.03
2023-02-25T07:04:04.213Z,99936.66
2023-02-25T07:06:34.155Z,99914.06
2023-02-25T07:09:03.867Z,99942.88
2023-02-25T07:11:35.813Z,99967.06
2023-02-25T07:14:09.426Z,99956.75
2023-02-25T07:16:39.120Z,99964.53
2023-02-25T07:19:08.752Z,99948.63
2023-02-25T07:21:38.596Z,99976.28
2023-02-25T07:24:08.976Z,99952.97
2023-02-25T07:26:38.715Z,99958.16
2023-02-25T07:29:11.026Z,99971.31
2023-02-25T07:31:40.879Z,99976.88
2023-02-25T07:34:11.405Z,99967.44
2023-02-25T07:36:41.006Z,99981.94
2023-02-25T07:39:13.418Z,99986.78
2023-02-25T07:41:43.052Z,99981.63
2023-02-25T07:44:17.308Z,99992.03
2023-02-25T07:46:47.041Z,99964.47
2023-02-25T07:49:16.636Z,99958.38
2023-02-25T07:51:46.226Z,99948.88
2023-02-25T07:54:17.360Z,99918.78
2023-02-25T07:56:46.940Z,100017.56
2023-02-25T07:59:19.164Z,100014.47
2023-02-25T08:01:48.857Z,100017.13
2023-02-25T08:04:18.621Z,100002.72
2023-02-25T08:06:48.740Z,99969.59
2023-02-25T08:09:18.376Z,100011.16
2023-02-25T08:11:49.140Z,100019.75
2023-02-25T08:14:21.772Z,100018.31
2023-02-25T08:16:51.450Z,100022.59
2023-02-25T08:19:21.084Z,100023.09
2023-02-25T08:21:50.727Z,100025.31
2023-02-25T08:24:20.957Z,100021.84
2023-02-25T08:26:50.950Z,100036.94
2023-02-25T08:29:23.488Z,100030.66
2023-02-25T08:31:53.849Z,100028.28
2023-02-25T08:34:23.611Z,100031.13
2023-02-25T08:36:53.285Z,100025.50
2023-02-25T08:39:23.122Z,100047.13
2023-02-25T08:41:52.818Z,100042.38
2023-02-25T08:44:25.010Z,100050.38
2023-02-25T08:46:59.721Z,100052.53
2023-02-25T08:49:29.433Z,100045.63
2023-02-25T08:51:59.044Z,100063.09
2023-02-25T08:54:28.649Z,100050.25
2023-02-25T08:57:00.262Z,100073.66
2023-02-25T08:59:35.928Z,100077.59
2023-02-25T09:02:06.360Z,100078.97
2023-02-25T09:04:37.912Z,100081.84
2023-02-25T09:07:07.932Z,100083.94
2023-02-25T09:09:37.563Z,100099.44
2023-02-25T09:12:07.745Z,100093.28
2023-02-25T09:14:40.396Z,100099.53
2023-02-25T09:17:10.290Z,100090.75
2023-02-25T09:19:40.508Z,100088.59
2023-02-25T09:22:11.694Z,100058.09
2023-02-25T09:24:41.280Z,100050.38
2023-02-25T09:27:11.034Z,100090.25
2023-02-25T09:29:44.018Z,100112.28
2023-02-25T09:32:21.244Z,100118.00
2023-02-25T09:36:46.866Z,99909.75
2023-02-25T09:39:16.469Z,100116.28
2023-02-25T09:41:55.232Z,100132.81
2023-02-25T09:44:29.703Z,100101.03
2023-02-25T09:47:05.652Z,100142.34
2023-02-25T09:49:39.352Z,100143.16
2023-02-25T09:52:18.657Z,100151.69
2023-02-25T09:54:50.285Z,100162.41
2023-02-25T09:57:23.542Z,100142.44
2023-02-25T09:59:55.100Z,100143.25
2023-02-25T10:02:35.556Z,100123.50
2023-02-25T10:05:18.183Z,100172.28
2023-02-25T10:08:00.161Z,100167.06
2023-02-25T10:10:38.219Z,100169.41
2023-02-25T10:13:23.060Z,100182.75
2023-02-25T10:16:03.196Z,100160.63
2023-02-25T10:18:49.232Z,100191.13
2023-02-25T10:21:31.502Z,100153.19
2023-02-25T10:24:16.373Z,100060.44
2023-02-25T10:26:51.595Z,100190.63
2023-02-25T10:29:29.768Z,100190.66
2023-02-25T10:32:02.933Z,100184.41
2023-02-25T10:34:37.230Z,100217.22
2023-02-25T10:37:14.393Z,100225.75
2023-02-25T10:39:48.608Z,100181.28
2023-02-25T10:42:18.815Z,100182.03
2023-02-25T10:44:48.588Z,100210.75
2023-02-25T10:47:25.226Z,100171.41
2023-02-25T10:50:14.344Z,100223.66
2023-02-25T10:53:05.068Z,100148.81
2023-02-25T10:55:52.260Z,100182.13
2023-02-25T10:58:34.599Z,100218.31
2023-02-25T11:01:09.309Z,100212.41
2023-02-25T11:03:48.192Z,100242.13
2023-02-25T11:06:24.956Z,100255.72
2023-02-25T11:08:56.446Z,100236.97
2023-02-25T11:11:32.137Z,100250.81
2023-02-25T11:14:05.320Z,100233.09
2023-02-25T11:16:37.996Z,100236.81
2023-02-25T11:19:18.179Z,100214.69
2023-02-25T11:21:49.449Z,100211.75
2023-02-25T11:24:21.106Z,100256.91
2023-02-25T11:26:54.948Z,100250.97
2023-02-25T11:29:28.649Z,100200.88
2023-02-25T11:32:04.697Z,100163.50
2023-02-25T11:34:35.261Z,100270.84
2023-02-25T11:37:26.443Z,100253.59
2023-02-25T11:39:59.241Z,100269.31
2023-02-25T11:42:32.540Z,100216.03
2023-02-25T11:45:03.914Z,100287.53
2023-02-25T11:47:36.230Z,100264.22
2023-02-25T11:50:23.943Z,100281.34
2023-02-25T11:52:59.713Z,100291.00
2023-02-25T11:55:45.292Z,100291.09
2023-02-25T11:58:29.027Z,100294.56
2023-02-25T12:01:03.424Z,100212.47
2023-02-25T12:04:17.949Z,100245.53
2023-02-25T12:07:10.818Z,100289.63
2023-02-25T12:10:22.064Z,100222.47
2023-02-25T12:13:28.759Z,100301.81
2023-02-25T13:32:18.108Z,100366.41
2023-02-25T13:35:14.011Z,100398.50
2023-02-25T13:37:52.752Z,100373.75
2023-02-25T13:40:39.269Z,100338.09
2023-02-25T13:43:48.485Z,100354.16
2023-02-25T13:46:56.760Z,100373.19
2023-02-25T13:50:00.185Z,100383.81
2023-02-25T13:52:58.686Z,100397.28
2023-02-25T13:56:05.865Z,100303.19
2023-02-25T13:59:02.229Z,100414.09
2023-02-25T14:02:35.800Z,100091.03
2023-02-25T14:16:07.461Z,100422.19
2023-02-25T14:19:26.197Z,100356.28
2023-02-25T16:12:34.720Z,100439.63
2023-02-25T16:19:59.742Z,100305.88
2023-02-25T16:22:59.650Z,100603.97
2023-02-25T16:26:58.227Z,100644.03
2023-02-25T16:30:16.209Z,100629.19
2023-02-25T17:01:05.760Z,100660.06
2023-02-25T17:04:49.843Z,100658.03
2023-02-25T17:09:07.676Z,100672.66
2023-02-25T17:13:04.269Z,100670.56
2023-02-25T17:33:08.801Z,100596.31
2023-02-25T17:36:35.111Z,100707.84
2023-02-25T17:39:55.094Z,100536.88
2023-02-25T17:47:04.311Z,100726.81
2023-02-25T17:58:34.458Z,100543.41
2023-02-25T18:01:46.960Z,100725.22
2023-02-25T18:04:25.821Z,100710.53
2023-02-25T18:06:56.044Z,100646.38
2023-02-25T18:09:41.708Z,100675.91
2023-02-25T18:12:26.143Z,100683.81
2023-02-25T18:15:01.211Z,100702.88
2023-02-25T18:17:33.899Z,100726.75
2023-02-25T18:20:05.926Z,100727.38
2023-02-25T18:22:39.346Z,100749.88
2023-02-25T18:25:33.100Z,100751.00
2023-02-25T18:28:03.158Z,100749.59
2023-02-25T18:30:36.104Z,100743.59
2023-02-25T18:33:05.752Z,100743.59
2023-02-25T18:35:35.976Z,100720.53
2023-02-25T18:38:05.724Z,100768.41
2023-02-25T18:40:38.504Z,100766.94
2023-02-25T18:43:08.693Z,100758.09
2023-02-25T18:45:41.200Z,100756.63
2023-02-25T18:48:11.008Z,100756.66
2023-02-25T18:50:44.701Z,100750.44
2023-02-25T18:53:17.739Z,100767.16
2023-02-25T18:55:47.490Z,100719.25
2023-02-25T18:58:18.927Z,100723.66
2023-02-25T19:00:53.797Z,100746.59
2023-02-25T19:03:29.552Z,100775.09
2023-02-25T19:05:59.294Z,100754.78
2023-02-25T19:08:29.086Z,100740.13
2023-02-25T19:10:58.941Z,100787.97
2023-02-25T19:13:31.867Z,100764.41
2023-02-25T19:16:04.826Z,100789.53
2023-02-25T19:18:34.650Z,100752.41
2023-02-25T19:21:04.456Z,100785.13
2023-02-25T19:23:36.060Z,100702.81
2023-02-25T19:26:08.978Z,100690.84
2023-02-25T19:35:23.357Z,100712.25
2023-02-25T19:38:34.812Z,100647.56
2023-02-25T19:41:06.621Z,100799.78
2023-02-25T19:43:37.287Z,100725.66
2023-02-25T19:46:10.786Z,100781.69
2023-02-25T19:48:54.619Z,100770.59
2023-02-25T19:51:25.078Z,100856.72
2023-02-25T19:57:48.745Z,100832.44
2023-02-25T20:00:37.628Z,100703.94
2023-02-25T20:03:09.944Z,100612.50
2023-02-25T20:05:43.147Z,100783.94
2023-02-25T20:08:13.382Z,100681.84
2023-02-25T20:10:46.128Z,100861.84
2023-02-25T20:13:16.257Z,100692.25
2023-02-25T20:15:46.203Z,100848.41
2023-02-25T20:18:16.522Z,100694.16
2023-02-25T20:20:50.160Z,100701.97
2023-02-25T20:23:19.977Z,100849.06
2023-02-25T20:25:49.765Z,100858.88
2023-02-25T20:28:21.756Z,100868.94
2023-02-25T20:31:26.319Z,100555.50
2023-02-25T20:46:47.415Z,100571.91
2023-02-25T20:50:27.167Z,100895.63
2023-02-25T20:53:20.665Z,100861.84
2023-02-25T21:03:46.467Z,100762.38
2023-02-25T21:10:49.721Z,100569.72
2023-02-25T21:14:19.159Z,100956.34
2023-02-25T21:17:23.542Z,100943.72
2023-02-25T21:21:06.716Z,100967.91
2023-02-25T21:24:15.350Z,100943.19
2023-02-25T21:31:20.592Z,100801.50
2023-02-25T21:50:05.429Z,100817.72
2023-02-25T22:42:24.988Z,101014.28
2023-02-25T22:47:13.118Z,100684.16
